Pagrindinis puslapis
METAR-TAF:

METAR-TAF

Oro uostai :

Šanchajaus Pudongo tarptautinis oro uostas

Šanchajus-Pudong, Kinija

platuma: 31-07N, ilguma: 121-46E, Aukštis: 4 m

Dabartinis oras

Ataskaita buvo paskelbta 10 minutes, ne 05:00 UTC
Vėjas 21 kt iš Šiaurės/Šiaurės Rytų
Temperatūra 28°C
Drėgmė 51%
Slėgis 1018 hPa
Matomumas 10 km arba daugiau
Mažai debesys ne aukštis 3000 ft

METAR: ZSPD 180500Z 03011MPS 9999 FEW030 28/17 Q1018 NOSIG

Laikas: 13:10 (05:10 UTC)

Prognozė

Ataskaita buvo paskelbta 7 valandos ir 51 minutes, ne 21:19 UTC
Prognozė galioja nuo 18 metu 00 UTC su 18 metu 24 UTC
Vėjas 12 kt iš Šiaurės/Šiaurės Rytų
Matomumas: 6000 m
Su prošvaistėmis ne aukštis 1600 ft

TAF: ZSPD 172119Z 1800/1824 02006MPS 6000 BKN016 TX29/1806Z TN22/1821Z

Orai ataskaitas ir orų prognozės (METAR, TAF).

turimą stotys yra geltonos ir raudonos taškus žemėlapyje.

Perkelti pele per norėdami pamatyti stoties vardą.

Tada spustelėkite, norėdami matyti oro stebėjimo ir prognozės.

Norėdami pakeisti žemėlapį: spustelėkite ant žalios mygtukų su juodo kryžiaus žemyn,; žalią mygtuką su brūkšneliu, jei norite nutolinti; arba žalių rodyklių gretimoms žemėlapius.


METAR-TAF: